Terminal Aerodrome Forecast
Issued by NWS

Home | Current Version | Previous Version | Text Only | Print | Product List | Glossary On
Versions: 1 2 3 4 5 6 7 8 9 10 11 12 13 14 15 16 17 18 19 20 21 22
000
FTPA31 PHFO 231514 AAA
TAFHNY
TAF AMD
PHNY 231514Z 2315/2412 06009KT P6SM SKC
     FM232000 VRB06KT P6SM BKN030
     FM240400 04009KT P6SM SKC=

USA.gov is the U.S. government's official web portal to all federal, state and local government web resources and services.